createdAt,value
2017-07-30T00:02:05.920Z,98451.16
2017-07-30T00:04:33.440Z,98444.80
2017-07-30T00:07:00.904Z,98445.98
2017-07-30T00:09:28.409Z,98452.57
2017-07-30T00:11:55.884Z,98450.26
2017-07-30T00:14:23.389Z,98448.30
2017-07-30T00:16:50.863Z,98441.17
2017-07-30T00:19:18.351Z,98434.19
2017-07-30T00:21:45.831Z,98435.33
2017-07-30T00:24:13.302Z,98432.05
2017-07-30T00:26:40.782Z,98436.67
2017-07-30T00:29:08.247Z,98434.17
2017-07-30T00:31:35.758Z,98441.51
2017-07-30T00:34:03.204Z,98436.84
2017-07-30T00:36:31.022Z,98431.42
2017-07-30T00:38:58.503Z,98432.78
2017-07-30T00:41:25.960Z,98428.53
2017-07-30T00:43:53.447Z,98433.16
2017-07-30T00:46:20.903Z,98428.70
2017-07-30T00:48:48.386Z,98425.04
2017-07-30T00:51:15.853Z,98423.69
2017-07-30T00:53:43.686Z,98422.72
2017-07-30T00:56:11.149Z,98420.80
2017-07-30T00:58:38.598Z,98420.23
2017-07-30T01:01:06.073Z,98422.55
2017-07-30T01:03:33.538Z,98420.99
2017-07-30T01:06:01.025Z,98419.85
2017-07-30T01:08:28.499Z,98413.25
2017-07-30T01:10:56.115Z,98422.35
2017-07-30T01:13:23.597Z,98418.89
2017-07-30T01:15:51.065Z,98416.93
2017-07-30T01:18:18.561Z,98408.23
2017-07-30T01:20:47.131Z,98410.94
2017-07-30T01:23:14.605Z,98414.22
2017-07-30T01:25:42.100Z,98410.55
2017-07-30T01:28:09.581Z,98412.12
2017-07-30T01:30:37.056Z,98402.65
2017-07-30T01:33:04.545Z,98402.26
2017-07-30T01:35:32.031Z,98396.62
2017-07-30T01:37:59.511Z,98398.19
2017-07-30T01:40:27.014Z,98398.58
2017-07-30T01:42:54.491Z,98391.99
2017-07-30T01:45:21.948Z,98386.40
2017-07-30T01:47:49.546Z,98384.61
2017-07-30T01:50:17.015Z,98376.09
2017-07-30T01:52:44.475Z,98377.84
2017-07-30T01:55:12.068Z,98374.17
2017-07-30T01:57:39.560Z,98373.39
2017-07-30T02:00:07.034Z,98373.98
2017-07-30T02:02:34.574Z,98367.01
2017-07-30T02:05:02.061Z,98368.36
2017-07-30T02:07:29.523Z,98366.61
2017-07-30T02:09:57.186Z,98364.11
2017-07-30T02:12:24.643Z,98368.75
2017-07-30T02:14:52.124Z,98371.84
2017-07-30T02:17:19.601Z,98362.16
2017-07-30T02:19:47.061Z,98361.98
2017-07-30T02:22:14.552Z,98364.69
2017-07-30T02:24:42.023Z,98360.63
2017-07-30T02:27:09.529Z,98356.75
2017-07-30T02:29:37.010Z,98358.89
2017-07-30T02:32:04.988Z,98348.04
2017-07-30T02:34:32.455Z,98360.42
2017-07-30T02:36:59.927Z,98347.66
2017-07-30T02:39:27.417Z,98344.57
2017-07-30T02:41:54.877Z,98344.00
2017-07-30T02:44:22.404Z,98342.26
2017-07-30T02:46:49.864Z,98339.94
2017-07-30T02:49:17.369Z,98335.31
2017-07-30T02:51:44.831Z,98339.37
2017-07-30T02:54:12.352Z,98341.30
2017-07-30T02:56:39.793Z,98341.86
2017-07-30T02:59:07.276Z,98325.63
2017-07-30T03:01:34.776Z,98327.76
2017-07-30T03:04:02.252Z,98327.15
2017-07-30T03:06:29.742Z,98327.75
2017-07-30T03:08:57.254Z,98334.69
2017-07-30T03:11:24.754Z,98330.05
2017-07-30T03:13:52.202Z,98332.37
2017-07-30T03:16:19.828Z,98328.09
2017-07-30T03:18:47.298Z,98331.37
2017-07-30T03:21:14.750Z,98329.66
2017-07-30T03:23:42.228Z,98331.19
2017-07-30T03:26:09.706Z,98331.58
2017-07-30T03:28:37.674Z,98330.62
2017-07-30T03:31:05.140Z,98330.62
2017-07-30T03:33:32.602Z,98339.70
2017-07-30T03:36:00.104Z,98334.28
2017-07-30T03:38:27.822Z,98336.77
2017-07-30T03:40:55.293Z,98334.28
2017-07-30T03:43:22.745Z,98326.33
2017-07-30T03:45:50.246Z,98319.56
2017-07-30T03:48:17.727Z,98328.26
2017-07-30T03:50:45.207Z,98320.36
2017-07-30T03:53:12.683Z,98319.39
2017-07-30T03:55:40.161Z,98314.16
2017-07-30T03:58:07.623Z,98322.86
2017-07-30T04:00:35.100Z,98326.55
2017-07-30T04:03:02.580Z,98329.62
2017-07-30T04:05:31.094Z,98325.55
2017-07-30T04:07:58.546Z,98332.88
2017-07-30T04:10:26.368Z,98332.52
2017-07-30T04:12:53.819Z,98335.58
2017-07-30T04:15:21.274Z,98335.02
2017-07-30T04:17:48.740Z,98342.34
2017-07-30T04:20:17.034Z,98339.47
2017-07-30T04:22:44.547Z,98331.91
2017-07-30T04:25:12.019Z,98337.33
2017-07-30T04:27:39.622Z,98337.33
2017-07-30T04:30:07.101Z,98342.95
2017-07-30T04:32:34.550Z,98337.89
2017-07-30T04:35:02.037Z,98339.45
2017-07-30T04:37:29.494Z,98330.38
2017-07-30T04:39:57.102Z,98332.48
2017-07-30T04:42:24.558Z,98328.42
2017-07-30T04:44:52.018Z,98326.10
2017-07-30T04:47:19.506Z,98326.50
2017-07-30T04:49:46.982Z,98324.74
2017-07-30T04:52:14.451Z,98335.00
2017-07-30T04:54:41.922Z,98333.25
2017-07-30T04:57:09.374Z,98330.33
2017-07-30T04:59:36.828Z,98325.88
2017-07-30T05:02:04.322Z,98333.42
2017-07-30T05:04:31.798Z,98336.12
2017-07-30T05:06:59.273Z,98337.83
2017-07-30T05:09:26.734Z,98338.25
2017-07-30T05:11:54.230Z,98350.21
2017-07-30T05:14:21.719Z,98352.92
2017-07-30T05:16:49.312Z,98357.94
2017-07-30T05:19:16.775Z,98352.53
2017-07-30T05:21:44.249Z,98354.66
2017-07-30T05:24:11.759Z,98353.09
2017-07-30T05:26:39.231Z,98359.86
2017-07-30T05:29:06.721Z,98356.00
2017-07-30T05:31:34.243Z,98359.11
2017-07-30T05:34:01.735Z,98364.13
2017-07-30T05:36:29.199Z,98369.14
2017-07-30T05:38:56.650Z,98373.77
2017-07-30T05:41:24.117Z,98374.34
2017-07-30T05:43:51.608Z,98384.98
2017-07-30T05:46:19.078Z,98389.04
2017-07-30T05:48:46.810Z,98390.00
2017-07-30T05:51:14.276Z,98395.20
2017-07-30T05:53:41.729Z,98400.83
2017-07-30T05:56:09.335Z,98404.88
2017-07-30T05:58:36.794Z,98400.83
2017-07-30T06:01:04.248Z,98405.28
2017-07-30T06:03:31.730Z,98407.41
2017-07-30T06:05:59.181Z,98405.06
2017-07-30T06:08:26.697Z,98408.56
2017-07-30T06:10:54.145Z,98408.17
2017-07-30T06:13:21.636Z,98415.54
2017-07-30T06:15:49.088Z,98414.75
2017-07-30T06:18:16.569Z,98419.20
2017-07-30T06:20:44.047Z,98420.95
2017-07-30T06:23:11.532Z,98422.70
2017-07-30T06:25:38.993Z,98426.19
2017-07-30T06:28:06.808Z,98427.32
2017-07-30T06:30:34.263Z,98433.52
2017-07-30T06:33:01.724Z,98435.05
2017-07-30T06:35:29.605Z,98425.02
2017-07-30T06:37:57.063Z,98431.95
2017-07-30T06:40:24.514Z,98426.93
2017-07-30T06:42:52.009Z,98435.27
2017-07-30T06:45:19.494Z,98434.30
2017-07-30T06:47:46.950Z,98419.99
2017-07-30T06:50:14.437Z,98425.59
2017-07-30T06:52:41.900Z,98427.15
2017-07-30T06:55:09.431Z,98425.97
2017-07-30T06:57:36.903Z,98430.98
2017-07-30T07:00:04.363Z,98425.19
2017-07-30T07:02:31.850Z,98426.36
2017-07-30T07:04:59.321Z,98426.75
2017-07-30T07:07:26.819Z,98421.14
2017-07-30T07:09:54.273Z,98418.43
2017-07-30T07:12:22.072Z,98413.80
2017-07-30T07:14:49.560Z,98423.48
2017-07-30T07:17:17.037Z,98420.00
2017-07-30T07:19:44.535Z,98423.10
2017-07-30T07:22:11.990Z,98424.63
2017-07-30T07:24:39.470Z,98429.85
2017-07-30T07:27:06.935Z,98429.08
2017-07-30T07:29:34.537Z,98431.02
2017-07-30T07:32:02.014Z,98440.88
2017-07-30T07:34:29.477Z,98439.13
2017-07-30T07:36:56.958Z,98439.52
2017-07-30T07:39:24.420Z,98445.53
2017-07-30T07:41:51.882Z,98446.89
2017-07-30T07:44:19.378Z,98453.09
2017-07-30T07:46:46.852Z,98438.21
2017-07-30T07:49:14.310Z,98440.32
2017-07-30T07:51:41.764Z,98448.05
2017-07-30T07:54:09.263Z,98458.87
2017-07-30T07:56:36.726Z,98439.92
2017-07-30T07:59:04.207Z,98430.09
2017-07-30T08:01:31.682Z,98431.63
2017-07-30T08:03:59.184Z,98435.50
2017-07-30T08:06:26.676Z,98443.63
2017-07-30T08:08:54.257Z,98446.11
2017-07-30T08:11:21.701Z,98424.70
2017-07-30T08:13:49.173Z,98458.11
2017-07-30T08:16:16.658Z,98460.81
2017-07-30T08:18:44.106Z,98462.17
2017-07-30T08:21:11.749Z,98452.49
2017-07-30T08:23:39.229Z,98465.86
2017-07-30T08:26:06.693Z,98466.47
2017-07-30T08:28:34.187Z,98474.95
2017-07-30T08:31:01.662Z,98483.11
2017-07-30T08:33:29.122Z,98475.17
2017-07-30T08:35:56.606Z,98489.33
2017-07-30T08:38:24.084Z,98493.17
2017-07-30T08:40:51.556Z,98493.58
2017-07-30T08:43:19.275Z,98508.86
2017-07-30T08:45:46.731Z,98511.58
2017-07-30T08:48:14.224Z,98514.73
2017-07-30T08:50:41.680Z,98513.39
2017-07-30T08:53:09.155Z,98512.43
2017-07-30T08:55:36.747Z,98508.56
2017-07-30T08:58:04.197Z,98524.02
2017-07-30T09:00:31.661Z,98521.53
2017-07-30T09:02:59.171Z,98513.63
2017-07-30T09:05:26.642Z,98516.74
2017-07-30T09:07:54.125Z,98509.59
2017-07-30T09:10:21.593Z,98483.47
2017-07-30T09:12:49.045Z,98472.10
2017-07-30T09:15:16.762Z,98464.78
2017-07-30T09:17:44.220Z,98451.21
2017-07-30T09:20:11.718Z,98434.12
2017-07-30T09:22:39.213Z,98424.00
2017-07-30T09:25:07.166Z,98432.08
2017-07-30T09:27:34.626Z,98438.98
2017-07-30T09:30:02.119Z,98448.06
2017-07-30T09:32:29.610Z,98460.16
2017-07-30T09:34:57.065Z,98442.90
2017-07-30T09:37:24.546Z,98455.05
2017-07-30T09:39:52.008Z,98471.67
2017-07-30T09:42:19.615Z,98461.13
2017-07-30T09:44:47.074Z,98466.45
2017-07-30T09:47:14.551Z,98468.94
2017-07-30T09:49:42.046Z,98487.09
2017-07-30T09:52:09.513Z,98508.77
2017-07-30T09:54:37.214Z,98509.74
2017-07-30T09:57:04.686Z,98512.67
2017-07-30T09:59:32.133Z,98523.13
2017-07-30T10:01:59.641Z,98525.88
2017-07-30T10:04:27.109Z,98523.96
2017-07-30T10:06:54.607Z,98529.00
2017-07-30T10:09:22.065Z,98518.56
2017-07-30T10:11:49.541Z,98517.22
2017-07-30T10:14:17.164Z,98494.02
2017-07-30T10:16:45.245Z,98522.48
2017-07-30T10:19:12.705Z,98496.40
2017-07-30T10:21:40.327Z,98487.70
2017-07-30T10:24:07.774Z,98482.86
2017-07-30T10:26:35.248Z,98478.45
2017-07-30T10:29:02.898Z,98464.91
2017-07-30T10:31:30.395Z,98458.52
2017-07-30T10:33:57.841Z,98483.87
2017-07-30T10:36:25.599Z,98486.20
2017-07-30T10:38:53.052Z,98492.40
2017-07-30T10:41:20.501Z,98506.91
2017-07-30T10:43:48.073Z,98525.09
2017-07-30T10:46:15.526Z,98534.79
2017-07-30T10:48:42.993Z,98527.38
2017-07-30T10:51:10.493Z,98538.06
2017-07-30T10:53:37.937Z,98529.36
2017-07-30T10:56:05.429Z,98535.93
2017-07-30T10:58:32.947Z,98534.01
2017-07-30T11:01:00.422Z,98522.42
2017-07-30T11:03:27.873Z,98508.48
2017-07-30T11:05:55.469Z,98509.89
2017-07-30T11:08:22.936Z,98522.89
2017-07-30T11:10:50.416Z,98502.09
2017-07-30T11:13:17.913Z,98510.38
2017-07-30T11:15:45.379Z,98520.43
2017-07-30T11:18:12.883Z,98515.36
2017-07-30T11:20:41.766Z,98506.62
2017-07-30T11:23:09.237Z,98500.49
2017-07-30T11:25:36.752Z,98508.81
2017-07-30T11:28:04.238Z,98515.78
2017-07-30T11:30:32.391Z,98509.94
2017-07-30T11:32:59.966Z,98524.32
2017-07-30T11:35:27.478Z,98534.58
2017-07-30T11:37:54.973Z,98515.48
2017-07-30T11:40:22.484Z,98499.87
2017-07-30T11:42:49.946Z,98512.50
2017-07-30T11:45:17.562Z,98524.32
2017-07-30T11:47:45.023Z,98535.75
2017-07-30T11:50:12.495Z,98530.74
2017-07-30T11:52:39.986Z,98543.89
2017-07-30T11:55:07.471Z,98542.61
2017-07-30T11:57:34.970Z,98541.55
2017-07-30T12:00:02.426Z,98548.57
2017-07-30T12:02:30.648Z,98541.82
2017-07-30T12:04:58.146Z,98539.38
2017-07-30T12:07:25.607Z,98543.42
2017-07-30T12:09:53.125Z,98543.09
2017-07-30T12:12:20.602Z,98558.39
2017-07-30T12:14:48.713Z,98565.13
2017-07-30T12:17:16.197Z,98564.29
2017-07-30T12:19:43.695Z,98569.98
2017-07-30T12:22:11.163Z,98563.88
2017-07-30T12:24:38.672Z,98561.77
2017-07-30T12:27:06.136Z,98562.70
2017-07-30T12:29:34.033Z,98567.33
2017-07-30T12:32:01.519Z,98575.41
2017-07-30T12:34:29.006Z,98588.34
2017-07-30T12:36:56.489Z,98579.20
2017-07-30T12:39:24.001Z,98580.56
2017-07-30T12:41:51.506Z,98576.30
2017-07-30T12:44:18.981Z,98580.72
2017-07-30T12:46:46.521Z,98578.89
2017-07-30T12:49:14.000Z,98584.84
2017-07-30T12:51:41.508Z,98573.95
2017-07-30T12:54:09.975Z,98580.84
2017-07-30T12:56:37.573Z,98597.47
2017-07-30T12:59:05.087Z,98603.91
2017-07-30T13:01:32.664Z,98603.44
2017-07-30T13:04:00.217Z,98600.55
2017-07-30T13:06:27.795Z,98597.20
2017-07-30T13:08:55.438Z,98585.08
2017-07-30T13:14:15.174Z,98592.92
2017-07-30T13:16:42.722Z,98588.69
2017-07-30T13:19:13.882Z,98592.99
2017-07-30T13:21:41.480Z,98595.48
2017-07-30T13:24:10.397Z,98599.12
2017-07-30T13:26:38.619Z,98582.52
2017-07-30T13:29:06.703Z,98590.83
2017-07-30T13:31:34.205Z,98585.16
2017-07-30T13:34:01.675Z,98571.89
2017-07-30T13:36:29.524Z,98554.66
2017-07-30T13:38:57.004Z,98498.93
2017-07-30T13:41:24.475Z,98495.03
2017-07-30T13:43:52.001Z,98555.30
2017-07-30T13:46:19.468Z,98586.82
2017-07-30T13:48:46.976Z,98573.53
2017-07-30T13:51:14.468Z,98545.19
2017-07-30T13:53:41.967Z,98577.34
2017-07-30T13:56:09.477Z,98540.61
2017-07-30T13:58:37.006Z,98553.95
2017-07-30T14:01:04.501Z,98555.85
2017-07-30T14:03:32.009Z,98543.53
2017-07-30T14:05:59.505Z,98538.33
2017-07-30T14:08:26.972Z,98538.59
2017-07-30T14:10:54.483Z,98527.28
2017-07-30T14:13:21.946Z,98507.63
2017-07-30T14:15:49.446Z,98491.13
2017-07-30T14:18:16.896Z,98478.43
2017-07-30T14:20:44.397Z,98490.73
2017-07-30T14:23:11.897Z,98507.98
2017-07-30T14:25:39.553Z,98516.97
2017-07-30T14:28:07.050Z,98510.17
2017-07-30T14:30:34.537Z,98493.66
2017-07-30T14:33:02.029Z,98490.20
2017-07-30T14:35:29.550Z,98509.08
2017-07-30T14:37:57.047Z,98527.48
2017-07-30T14:40:24.520Z,98517.93
2017-07-30T14:42:52.042Z,98505.20
2017-07-30T14:45:19.514Z,98510.55
2017-07-30T14:47:47.041Z,98506.02
2017-07-30T14:50:14.513Z,98505.34
2017-07-30T14:52:42.146Z,98506.91
2017-07-30T14:55:09.635Z,98508.08
2017-07-30T14:57:37.120Z,98506.93
2017-07-30T15:00:04.671Z,98499.17
2017-07-30T15:02:32.150Z,98499.36
2017-07-30T15:04:59.650Z,98502.26
2017-07-30T15:07:27.142Z,98497.79
2017-07-30T15:09:54.638Z,98497.36
2017-07-30T15:12:22.099Z,98498.40
2017-07-30T15:14:49.598Z,98503.67
2017-07-30T15:17:17.159Z,98506.16
2017-07-30T15:19:45.427Z,98509.33
2017-07-30T15:22:12.925Z,98508.36
2017-07-30T15:24:40.393Z,98514.54
2017-07-30T15:27:08.043Z,98516.50
2017-07-30T15:29:35.509Z,98523.89
2017-07-30T15:32:02.976Z,98522.89
2017-07-30T15:34:30.496Z,98535.14
2017-07-30T15:36:58.007Z,98531.38
2017-07-30T15:39:25.458Z,98534.57
2017-07-30T15:41:53.156Z,98537.66
2017-07-30T15:44:20.630Z,98539.05
2017-07-30T15:46:48.096Z,98541.52
2017-07-30T15:49:15.649Z,98531.07
2017-07-30T15:51:43.139Z,98531.75
2017-07-30T15:54:10.672Z,98540.06
2017-07-30T15:56:38.125Z,98536.94
2017-07-30T15:59:06.723Z,98547.81
2017-07-30T16:01:34.182Z,98536.22
2017-07-30T16:04:01.634Z,98535.46
2017-07-30T16:06:29.129Z,98538.16
2017-07-30T16:08:56.593Z,98531.63
2017-07-30T16:11:24.311Z,98537.91
2017-07-30T16:13:51.813Z,98548.13
2017-07-30T16:16:19.391Z,98525.27
2017-07-30T16:18:46.896Z,98535.80
2017-07-30T16:21:14.854Z,98534.60
2017-07-30T16:23:42.311Z,98529.59
2017-07-30T16:26:09.769Z,98527.34
2017-07-30T16:28:37.266Z,98530.67
2017-07-30T16:31:05.835Z,98532.10
2017-07-30T16:33:33.393Z,98532.75
2017-07-30T16:36:00.858Z,98523.94
2017-07-30T16:38:28.339Z,98523.70
2017-07-30T16:40:55.835Z,98524.84
2017-07-30T16:43:23.361Z,98524.78
2017-07-30T16:45:50.837Z,98529.33
2017-07-30T16:48:18.453Z,98527.70
2017-07-30T16:50:45.963Z,98532.23
2017-07-30T16:53:13.421Z,98531.48
2017-07-30T16:55:40.928Z,98533.95
2017-07-30T16:58:08.399Z,98532.66
2017-07-30T17:00:35.885Z,98524.59
2017-07-30T17:03:03.362Z,98527.92
2017-07-30T17:05:30.976Z,98529.05
2017-07-30T17:07:58.443Z,98522.95
2017-07-30T17:10:25.915Z,98523.84
2017-07-30T17:12:53.419Z,98518.57
2017-07-30T17:15:20.889Z,98521.72
2017-07-30T17:17:48.391Z,98521.75
2017-07-30T17:20:15.863Z,98514.56
2017-07-30T17:22:43.367Z,98513.77
2017-07-30T17:25:10.827Z,98523.86
2017-07-30T17:27:38.355Z,98524.84
2017-07-30T17:30:05.813Z,98532.22
2017-07-30T17:32:33.446Z,98529.91
2017-07-30T17:35:00.947Z,98520.41
2017-07-30T17:37:28.412Z,98512.23
2017-07-30T17:39:55.887Z,98515.91
2017-07-30T17:42:23.363Z,98512.73
2017-07-30T17:44:50.857Z,98498.02
2017-07-30T17:47:18.346Z,98501.73
2017-07-30T17:49:45.858Z,98498.40
2017-07-30T17:52:13.325Z,98508.14
2017-07-30T17:54:40.830Z,98508.16
2017-07-30T17:57:08.268Z,98512.80
2017-07-30T17:59:35.780Z,98512.34
2017-07-30T18:02:03.265Z,98522.78
2017-07-30T18:04:30.746Z,98524.95
2017-07-30T18:06:58.283Z,98527.01
2017-07-30T18:09:25.787Z,98531.44
2017-07-30T18:11:53.373Z,98533.58
2017-07-30T18:14:20.859Z,98532.58
2017-07-30T18:16:48.510Z,98535.22
2017-07-30T18:19:15.999Z,98538.15
2017-07-30T18:21:44.546Z,98538.32
2017-07-30T18:24:12.056Z,98542.34
2017-07-30T18:26:40.361Z,98545.41
2017-07-30T18:29:08.741Z,98548.69
2017-07-30T18:31:36.210Z,98554.50
2017-07-30T18:34:03.740Z,98556.02
2017-07-30T18:36:31.215Z,98561.41
2017-07-30T18:38:59.560Z,98558.73
2017-07-30T18:41:27.049Z,98502.72
2017-07-30T18:43:54.537Z,98558.56
2017-07-30T18:46:22.953Z,98552.42
2017-07-30T18:48:50.430Z,98544.45
2017-07-30T18:51:17.937Z,98547.28
2017-07-30T18:53:45.458Z,98551.97
2017-07-30T18:56:13.754Z,98554.23
2017-07-30T18:58:41.247Z,98555.13
2017-07-30T19:01:08.791Z,98551.47
2017-07-30T19:03:36.301Z,98557.27
2017-07-30T19:06:06.195Z,98557.20
2017-07-30T19:08:33.686Z,98552.67
2017-07-30T19:11:01.292Z,98542.16
2017-07-30T19:13:29.111Z,98545.31
2017-07-30T19:15:56.569Z,98547.55
2017-07-30T19:18:24.050Z,98554.34
2017-07-30T19:20:51.531Z,98557.91
2017-07-30T19:23:18.997Z,98557.65
2017-07-30T19:25:46.567Z,98557.09
2017-07-30T19:28:14.047Z,98559.34
2017-07-30T19:30:41.534Z,98557.37
2017-07-30T19:33:09.023Z,98559.59
2017-07-30T19:35:36.494Z,98569.23
2017-07-30T19:38:03.980Z,98568.81
2017-07-30T19:40:31.457Z,98572.95
2017-07-30T19:42:58.985Z,98574.79
2017-07-30T19:45:26.484Z,98581.15
2017-07-30T19:47:53.999Z,98578.17
2017-07-30T19:50:22.246Z,98578.48
2017-07-30T19:52:49.748Z,98581.95
2017-07-30T19:55:17.250Z,98577.70
2017-07-30T19:57:44.725Z,98576.47
2017-07-30T20:00:12.225Z,98579.23
2017-07-30T20:02:39.694Z,98576.97
2017-07-30T20:05:07.232Z,98576.70
2017-07-30T20:07:34.737Z,98576.27
2017-07-30T20:10:02.211Z,98564.91
2017-07-30T20:12:29.726Z,98573.20
2017-07-30T20:14:57.193Z,98570.44
2017-07-30T20:17:24.692Z,98573.33
2017-07-30T20:19:52.178Z,98568.57
2017-07-30T20:22:19.647Z,98571.47
2017-07-30T20:24:47.130Z,98577.42
2017-07-30T20:27:14.612Z,98579.98
2017-07-30T20:29:42.115Z,98575.44
2017-07-30T20:32:09.612Z,98573.21
2017-07-30T20:34:37.120Z,98581.53
2017-07-30T20:37:04.665Z,98587.56
2017-07-30T20:39:33.072Z,98593.91
2017-07-30T20:42:00.546Z,98604.38
2017-07-30T20:44:28.026Z,98606.85
2017-07-30T20:46:55.520Z,98611.13
2017-07-30T20:49:22.985Z,98613.91
2017-07-30T20:51:50.484Z,98622.06
2017-07-30T20:54:18.011Z,98624.16
2017-07-30T20:56:46.334Z,98626.93
2017-07-30T20:59:13.801Z,98617.74
2017-07-30T21:01:41.319Z,98624.47
2017-07-30T21:04:08.789Z,98623.98
2017-07-30T21:06:36.294Z,98631.50
2017-07-30T21:09:03.819Z,98627.05
2017-07-30T21:11:31.293Z,98629.09
2017-07-30T21:13:58.785Z,98630.46
2017-07-30T21:16:26.262Z,98637.11
2017-07-30T21:18:54.218Z,98631.98
2017-07-30T21:21:21.707Z,98637.55
2017-07-30T21:23:49.173Z,98623.42
2017-07-30T21:26:16.672Z,98632.75
2017-07-30T21:28:44.140Z,98636.24
2017-07-30T21:31:11.618Z,98633.91
2017-07-30T21:33:39.127Z,98631.94
2017-07-30T21:36:06.611Z,98629.97
2017-07-30T21:38:34.129Z,98626.36
2017-07-30T21:41:01.594Z,98630.23
2017-07-30T21:43:29.109Z,98632.88
2017-07-30T21:45:56.657Z,98647.15
2017-07-30T21:48:24.201Z,98641.11
2017-07-30T21:50:51.682Z,98647.83
2017-07-30T21:53:19.190Z,98660.21
2017-07-30T21:55:46.685Z,98668.63
2017-07-30T21:58:14.365Z,98666.06
2017-07-30T22:00:41.887Z,98674.94
2017-07-30T22:03:09.366Z,98676.88
2017-07-30T22:05:37.204Z,98674.61
2017-07-30T22:08:04.774Z,98675.78
2017-07-30T22:10:32.262Z,98674.28
2017-07-30T22:12:59.717Z,98675.66
2017-07-30T22:15:27.375Z,98669.17
2017-07-30T22:17:54.836Z,98679.06
2017-07-30T22:20:22.326Z,98677.41
2017-07-30T22:22:49.886Z,98696.20
2017-07-30T22:25:17.356Z,98686.81
2017-07-30T22:27:44.843Z,98699.34
2017-07-30T22:30:12.322Z,98710.53
2017-07-30T22:32:39.812Z,98706.42
2017-07-30T22:35:09.124Z,98704.17
2017-07-30T22:37:36.621Z,98702.20
2017-07-30T22:40:04.104Z,98698.13
2017-07-30T22:42:31.566Z,98693.13
2017-07-30T22:44:59.103Z,98685.95
2017-07-30T22:47:27.461Z,98690.87
2017-07-30T22:49:54.980Z,98691.42
2017-07-30T22:52:22.483Z,98688.86
2017-07-30T22:54:49.972Z,98684.33
2017-07-30T22:57:17.514Z,98681.97
2017-07-30T22:59:44.967Z,98683.91
2017-07-30T23:02:12.457Z,98686.88
2017-07-30T23:04:39.963Z,98680.59
2017-07-30T23:07:07.449Z,98684.96
2017-07-30T23:09:34.900Z,98680.12
2017-07-30T23:12:02.386Z,98677.18
2017-07-30T23:14:29.888Z,98696.64
2017-07-30T23:16:58.098Z,98693.52
2017-07-30T23:19:26.439Z,98690.47
2017-07-30T23:21:53.931Z,98700.02
2017-07-30T23:24:21.476Z,98703.31
2017-07-30T23:26:48.980Z,98702.03
2017-07-30T23:29:16.450Z,98704.89
2017-07-30T23:31:43.949Z,98703.84
2017-07-30T23:34:11.400Z,98704.80
2017-07-30T23:36:38.882Z,98696.88
2017-07-30T23:39:06.361Z,98686.94
2017-07-30T23:41:33.900Z,98687.20
2017-07-30T23:44:01.401Z,98686.97
2017-07-30T23:46:28.892Z,98680.42
2017-07-30T23:48:56.375Z,98681.77
2017-07-30T23:51:23.880Z,98699.08
2017-07-30T23:53:51.405Z,98684.23
2017-07-30T23:56:18.973Z,98691.92
2017-07-30T23:58:46.490Z,98696.81
